createdAt,value
2018-04-06T00:02:02.133Z,23.01
2018-04-06T00:04:28.133Z,23.01
2018-04-06T00:06:54.117Z,23.03
2018-04-06T00:09:20.138Z,23.04
2018-04-06T00:11:46.090Z,23.05
2018-04-06T00:14:12.071Z,23.07
2018-04-06T00:16:38.099Z,23.06
2018-04-06T00:19:04.055Z,23.06
2018-04-06T00:21:30.038Z,23.08
2018-04-06T00:23:56.052Z,23.09
2018-04-06T00:26:22.004Z,23.07
2018-04-06T00:28:48.061Z,23.10
2018-04-06T00:31:14.037Z,23.11
2018-04-06T00:33:39.991Z,23.11
2018-04-06T00:36:06.015Z,23.12
2018-04-06T00:38:32.031Z,23.13
2018-04-06T00:40:58.047Z,23.14
2018-04-06T00:43:23.997Z,23.13
2018-04-06T00:45:49.981Z,23.14
2018-04-06T00:48:16.002Z,23.13
2018-04-06T00:50:42.015Z,23.14
2018-04-06T00:53:07.965Z,23.15
2018-04-06T00:55:33.946Z,23.15
2018-04-06T00:57:59.925Z,23.17
2018-04-06T01:00:25.942Z,23.17
2018-04-06T01:02:51.897Z,23.17
2018-04-06T01:05:17.922Z,23.18
2018-04-06T01:07:43.867Z,23.17
2018-04-06T01:10:09.909Z,23.16
2018-04-06T01:12:35.857Z,23.16
2018-04-06T01:15:01.868Z,23.17
2018-04-06T01:17:27.820Z,23.17
2018-04-06T01:19:53.832Z,23.18
2018-04-06T01:22:19.783Z,23.18
2018-04-06T01:24:45.799Z,23.16
2018-04-06T01:27:11.762Z,23.15
2018-04-06T01:29:37.776Z,23.13
2018-04-06T01:32:03.732Z,23.14
2018-04-06T01:34:29.711Z,23.12
2018-04-06T01:36:55.728Z,23.11
2018-04-06T01:39:21.742Z,23.11
2018-04-06T01:41:47.693Z,23.09
2018-04-06T01:44:13.705Z,23.08
2018-04-06T01:46:39.672Z,23.08
2018-04-06T01:49:05.646Z,23.07
2018-04-06T01:51:31.663Z,23.06
2018-04-06T01:53:57.647Z,23.05
2018-04-06T01:56:23.625Z,23.04
2018-04-06T01:58:49.644Z,23.03
2018-04-06T02:01:15.595Z,23.02
2018-04-06T02:03:41.582Z,23.01
2018-04-06T02:06:07.560Z,23.01
2018-04-06T02:08:33.573Z,23.00
2018-04-06T02:10:59.549Z,23.00
2018-04-06T02:13:25.528Z,22.99
2018-04-06T02:15:51.533Z,22.98
2018-04-06T02:18:17.472Z,22.98
2018-04-06T02:20:43.452Z,22.98
2018-04-06T02:23:09.431Z,22.97
2018-04-06T02:25:35.426Z,22.97
2018-04-06T02:28:01.446Z,22.96
2018-04-06T02:30:27.465Z,22.96
2018-04-06T02:32:53.398Z,22.95
2018-04-06T02:35:19.378Z,22.95
2018-04-06T02:37:45.366Z,22.95
2018-04-06T02:40:11.380Z,22.94
2018-04-06T02:42:37.371Z,22.94
2018-04-06T02:45:03.360Z,22.93
2018-04-06T02:47:29.313Z,22.93
2018-04-06T02:49:55.333Z,22.93
2018-04-06T02:52:21.313Z,22.92
2018-04-06T02:54:47.258Z,22.92
2018-04-06T02:57:13.248Z,22.91
2018-04-06T02:59:39.227Z,22.91
2018-04-06T03:02:05.211Z,22.90
2018-04-06T03:04:31.208Z,22.90
2018-04-06T03:06:57.215Z,22.90
2018-04-06T03:09:23.249Z,22.89
2018-04-06T03:11:49.182Z,22.88
2018-04-06T03:14:15.152Z,22.89
2018-04-06T03:16:41.172Z,22.88
2018-04-06T03:19:07.144Z,22.88
2018-04-06T03:21:33.153Z,22.88
2018-04-06T03:23:59.133Z,22.88
2018-04-06T03:26:25.081Z,22.87
2018-04-06T03:28:51.096Z,22.87
2018-04-06T03:31:17.077Z,22.87
2018-04-06T03:33:43.022Z,22.87
2018-04-06T03:36:09.138Z,22.87
2018-04-06T03:38:35.128Z,22.86
2018-04-06T03:41:01.138Z,22.86
2018-04-06T03:43:27.146Z,22.86
2018-04-06T03:45:53.122Z,22.86
2018-04-06T03:48:19.109Z,22.85
2018-04-06T03:50:45.092Z,22.85
2018-04-06T03:53:11.085Z,22.85
2018-04-06T03:55:37.066Z,22.85
2018-04-06T03:58:03.046Z,22.85
2018-04-06T04:00:29.087Z,22.85
2018-04-06T04:02:55.073Z,22.85
2018-04-06T04:05:21.080Z,22.86
2018-04-06T04:07:47.063Z,22.86
2018-04-06T04:10:13.049Z,22.87
2018-04-06T04:12:39.031Z,22.86
2018-04-06T04:15:05.046Z,22.86
2018-04-06T04:17:31.027Z,22.86
2018-04-06T04:19:57.036Z,22.87
2018-04-06T04:22:23.055Z,22.87
2018-04-06T04:24:49.016Z,22.88
2018-04-06T04:27:15.005Z,22.89
2018-04-06T04:29:41.023Z,22.90
2018-04-06T04:32:06.986Z,22.91
2018-04-06T04:34:32.963Z,22.91
2018-04-06T04:36:59.006Z,22.91
2018-04-06T04:39:24.989Z,22.92
2018-04-06T04:41:50.973Z,22.92
2018-04-06T04:44:17.006Z,22.91
2018-04-06T04:46:43.069Z,22.90
2018-04-06T04:49:08.985Z,22.90
2018-04-06T04:51:35.290Z,22.89
2018-04-06T04:54:01.311Z,22.89
2018-04-06T04:56:27.258Z,22.88
2018-04-06T04:58:53.248Z,22.88
2018-04-06T05:01:19.229Z,22.87
2018-04-06T05:03:46.298Z,22.87
2018-04-06T05:06:12.284Z,22.86
2018-04-06T05:08:39.645Z,22.86
2018-04-06T05:11:05.629Z,22.86
2018-04-06T05:13:31.605Z,22.86
2018-04-06T05:15:57.620Z,22.86
2018-04-06T05:18:23.564Z,22.87
2018-04-06T05:20:49.550Z,22.87
2018-04-06T05:23:15.642Z,22.86
2018-04-06T05:25:41.625Z,22.86
2018-04-06T05:28:07.820Z,22.87
2018-04-06T05:30:33.927Z,22.88
2018-04-06T05:32:59.909Z,22.88
2018-04-06T05:35:25.958Z,22.89
2018-04-06T05:37:51.980Z,22.88
2018-04-06T05:40:17.956Z,22.89
2018-04-06T05:42:43.933Z,22.90
2018-04-06T05:45:09.970Z,22.91
2018-04-06T05:47:35.981Z,22.90
2018-04-06T05:50:01.992Z,22.90
2018-04-06T05:52:27.983Z,22.90
2018-04-06T05:54:53.955Z,22.90
2018-04-06T05:57:19.930Z,22.90
2018-04-06T05:59:45.919Z,22.91
2018-04-06T06:02:11.974Z,22.91
2018-04-06T06:04:37.943Z,22.90
2018-04-06T06:07:03.924Z,22.91
2018-04-06T06:09:29.910Z,22.91
2018-04-06T06:11:55.931Z,22.91
2018-04-06T06:14:21.873Z,22.90
2018-04-06T06:16:47.866Z,22.90
2018-04-06T06:19:13.852Z,22.90
2018-04-06T06:21:39.875Z,22.90
2018-04-06T06:24:05.943Z,22.89
2018-04-06T06:26:31.926Z,22.89
2018-04-06T06:28:57.908Z,22.88
2018-04-06T06:31:23.890Z,22.88
2018-04-06T06:33:49.898Z,22.89
2018-04-06T06:36:15.927Z,22.91
2018-04-06T06:38:42.554Z,22.92
2018-04-06T06:41:08.551Z,22.93
2018-04-06T06:43:34.534Z,22.93
2018-04-06T06:46:00.523Z,22.93
2018-04-06T06:48:26.545Z,22.93
2018-04-06T06:50:52.544Z,22.93
2018-04-06T06:53:18.541Z,22.93
2018-04-06T06:55:44.699Z,22.93
2018-04-06T06:58:10.755Z,22.94
2018-04-06T07:00:36.739Z,22.94
2018-04-06T07:03:02.742Z,22.94
2018-04-06T07:05:28.718Z,22.94
2018-04-06T07:07:54.919Z,22.95
2018-04-06T07:10:21.345Z,22.97
2018-04-06T07:12:47.356Z,22.97
2018-04-06T07:15:13.334Z,22.97
2018-04-06T07:17:39.517Z,22.98
2018-04-06T07:20:05.478Z,22.99
2018-04-06T07:22:31.514Z,22.99
2018-04-06T07:24:57.498Z,22.99
2018-04-06T07:27:23.486Z,23.00
2018-04-06T07:29:49.499Z,23.00
2018-04-06T07:32:15.474Z,23.00
2018-04-06T07:34:41.699Z,23.00
2018-04-06T07:37:07.809Z,23.00
2018-04-06T07:39:33.789Z,23.00
2018-04-06T07:41:59.839Z,23.01
2018-04-06T07:44:25.925Z,23.01
2018-04-06T07:46:51.834Z,23.01
2018-04-06T07:49:17.856Z,23.01
2018-04-06T07:51:43.830Z,23.01
2018-04-06T07:54:09.914Z,23.02
2018-04-06T07:56:35.926Z,23.01
2018-04-06T07:59:02.136Z,23.02
2018-04-06T08:01:28.123Z,23.01
2018-04-06T08:03:54.112Z,23.01
2018-04-06T08:06:20.190Z,23.02
2018-04-06T08:08:46.554Z,23.02
2018-04-06T08:11:12.620Z,23.02
2018-04-06T08:13:38.568Z,23.02
2018-04-06T08:16:04.544Z,23.01
2018-04-06T08:18:31.498Z,23.01
2018-04-06T08:20:57.446Z,23.01
2018-04-06T08:23:23.486Z,23.01
2018-04-06T08:25:49.500Z,23.00
2018-04-06T08:28:17.202Z,22.99
2018-04-06T08:30:43.168Z,22.98
2018-04-06T08:33:09.187Z,22.99
2018-04-06T08:35:35.197Z,22.98
2018-04-06T08:38:04.058Z,22.98
2018-04-06T08:40:30.738Z,22.98
2018-04-06T08:42:57.418Z,22.98
2018-04-06T08:45:23.457Z,22.98
2018-04-06T08:47:49.434Z,22.98
2018-04-06T08:50:15.420Z,22.98
2018-04-06T08:52:41.423Z,22.97
2018-04-06T08:55:07.452Z,22.98
2018-04-06T08:57:33.872Z,22.98
2018-04-06T08:59:59.882Z,22.98
2018-04-06T09:02:25.841Z,22.98
2018-04-06T09:04:51.825Z,22.97
2018-04-06T09:07:17.838Z,22.96
2018-04-06T09:09:43.788Z,22.96
2018-04-06T09:12:09.773Z,22.95
2018-04-06T09:14:35.787Z,22.95
2018-04-06T09:17:01.734Z,22.94
2018-04-06T09:19:27.746Z,22.94
2018-04-06T09:21:53.735Z,22.94
2018-04-06T09:24:19.769Z,22.93
2018-04-06T09:26:45.792Z,22.93
2018-04-06T09:29:11.802Z,22.94
2018-04-06T09:31:37.815Z,22.94
2018-04-06T09:34:03.794Z,22.93
2018-04-06T09:36:29.774Z,22.94
2018-04-06T09:38:55.788Z,22.94
2018-04-06T09:41:21.834Z,22.94
2018-04-06T09:43:47.886Z,22.94
2018-04-06T09:46:13.830Z,22.94
2018-04-06T09:48:39.845Z,22.94
2018-04-06T09:51:05.856Z,22.93
2018-04-06T09:53:31.837Z,22.93
2018-04-06T09:55:57.814Z,22.93
2018-04-06T09:58:23.794Z,22.93
2018-04-06T10:00:49.824Z,22.93
2018-04-06T10:03:15.839Z,22.92
2018-04-06T10:05:41.800Z,22.93
2018-04-06T10:08:07.783Z,22.94
2018-04-06T10:10:33.761Z,22.95
2018-04-06T10:12:59.752Z,22.94
2018-04-06T10:15:25.765Z,22.95
2018-04-06T10:17:51.748Z,22.94
2018-04-06T10:20:17.733Z,22.95
2018-04-06T10:22:43.745Z,22.94
2018-04-06T10:25:09.723Z,22.95
2018-04-06T10:27:35.702Z,22.94
2018-04-06T10:30:01.713Z,22.94
2018-04-06T10:32:27.728Z,22.94
2018-04-06T10:34:53.692Z,22.94
2018-04-06T10:37:19.702Z,22.93
2018-04-06T10:39:45.721Z,22.92
2018-04-06T10:42:11.683Z,22.92
2018-04-06T10:44:37.671Z,22.90
2018-04-06T10:47:03.653Z,22.91
2018-04-06T10:49:29.645Z,22.90
2018-04-06T10:51:55.632Z,22.90
2018-04-06T10:54:21.650Z,22.90
2018-04-06T10:56:47.624Z,22.90
2018-04-06T10:59:13.602Z,22.89
2018-04-06T11:01:39.584Z,22.89
2018-04-06T11:04:05.620Z,22.90
2018-04-06T11:06:31.607Z,22.91
2018-04-06T11:08:57.621Z,22.91
2018-04-06T11:11:23.598Z,22.90
2018-04-06T11:13:49.580Z,22.91
2018-04-06T11:16:15.571Z,22.90
2018-04-06T11:18:41.559Z,22.90
2018-04-06T11:21:07.548Z,22.92
2018-04-06T11:23:33.537Z,22.91
2018-04-06T11:25:59.523Z,22.91
2018-04-06T11:28:25.510Z,22.91
2018-04-06T11:30:51.495Z,22.90
2018-04-06T11:33:17.503Z,22.89
2018-04-06T11:35:43.494Z,22.88
2018-04-06T11:38:09.509Z,22.89
2018-04-06T11:40:35.519Z,22.89
2018-04-06T11:43:01.495Z,22.90
2018-04-06T11:45:27.442Z,22.89
2018-04-06T11:47:53.519Z,22.89
2018-04-06T11:50:19.546Z,22.88
2018-04-06T11:52:45.559Z,22.88
2018-04-06T11:55:11.539Z,22.87
2018-04-06T11:57:37.556Z,22.87
2018-04-06T12:00:03.558Z,22.87
2018-04-06T12:02:29.535Z,22.88
2018-04-06T12:04:55.518Z,22.87
2018-04-06T12:07:21.535Z,22.88
2018-04-06T12:09:47.490Z,22.89
2018-04-06T12:12:13.502Z,22.87
2018-04-06T12:14:39.445Z,22.87
2018-04-06T12:17:05.428Z,22.88
2018-04-06T12:19:31.402Z,22.88
2018-04-06T12:21:57.391Z,22.90
2018-04-06T12:24:23.440Z,22.90
2018-04-06T12:26:49.419Z,22.89
2018-04-06T12:29:15.436Z,23.00
2018-04-06T12:31:41.371Z,22.97
2018-04-06T12:34:07.413Z,23.03
2018-04-06T12:36:33.361Z,23.05
2018-04-06T12:38:59.354Z,23.07
2018-04-06T12:41:25.353Z,23.12
2018-04-06T12:43:51.321Z,23.37
2018-04-06T12:46:17.292Z,23.24
2018-04-06T12:48:43.336Z,23.16
2018-04-06T12:51:09.377Z,23.13
2018-04-06T12:53:35.389Z,23.14
2018-04-06T12:56:01.334Z,23.16
2018-04-06T12:58:27.375Z,23.15
2018-04-06T13:00:53.381Z,23.16
2018-04-06T13:03:19.357Z,23.16
2018-04-06T13:05:45.311Z,23.18
2018-04-06T13:08:11.298Z,23.17
2018-04-06T13:10:37.273Z,23.17
2018-04-06T13:13:03.352Z,23.16
2018-04-06T13:15:29.597Z,23.16
2018-04-06T13:17:55.534Z,23.16
2018-04-06T13:20:21.508Z,23.16
2018-04-06T13:22:47.572Z,23.15
2018-04-06T13:25:13.518Z,23.16
2018-04-06T13:27:39.527Z,23.18
2018-04-06T13:30:05.530Z,23.18
2018-04-06T13:32:31.507Z,23.19
2018-04-06T13:34:57.483Z,23.19
2018-04-06T13:37:24.043Z,23.19
2018-04-06T13:39:50.115Z,23.17
2018-04-06T13:42:16.070Z,23.17
2018-04-06T13:44:42.124Z,23.15
2018-04-06T13:47:08.135Z,23.16
2018-04-06T13:49:34.085Z,23.14
2018-04-06T13:52:00.101Z,23.14
2018-04-06T13:54:26.052Z,23.14
2018-04-06T13:56:52.045Z,23.13
2018-04-06T13:59:18.025Z,23.14
2018-04-06T14:01:44.097Z,23.12
2018-04-06T14:04:10.079Z,23.10
2018-04-06T14:06:36.117Z,23.08
2018-04-06T14:09:02.101Z,23.07
2018-04-06T14:11:28.085Z,23.07
2018-04-06T14:13:54.068Z,23.09
2018-04-06T14:16:20.054Z,23.07
2018-04-06T14:18:46.055Z,23.08
2018-04-06T14:21:12.107Z,23.08
2018-04-06T14:23:38.167Z,23.06
2018-04-06T14:26:04.260Z,23.08
2018-04-06T14:28:30.242Z,23.07
2018-04-06T14:30:56.244Z,23.07
2018-04-06T14:33:22.285Z,23.07
2018-04-06T14:35:48.297Z,23.09
2018-04-06T14:38:14.497Z,23.09
2018-04-06T14:40:40.513Z,23.11
2018-04-06T14:43:06.516Z,23.12
2018-04-06T14:45:32.515Z,23.12
2018-04-06T14:47:58.534Z,23.10
2018-04-06T14:50:24.523Z,23.07
2018-04-06T14:52:50.475Z,23.03
2018-04-06T14:55:16.465Z,23.06
2018-04-06T14:57:44.952Z,23.07
2018-04-06T15:00:11.006Z,23.08
2018-04-06T15:02:36.990Z,23.09
2018-04-06T15:05:02.969Z,23.09
2018-04-06T15:07:28.986Z,23.10
2018-04-06T15:09:55.000Z,23.08
2018-04-06T15:12:20.952Z,23.08
2018-04-06T15:14:47.052Z,23.09
2018-04-06T15:17:13.073Z,23.10
2018-04-06T15:19:39.054Z,23.08
2018-04-06T15:22:05.048Z,23.09
2018-04-06T15:24:31.502Z,23.09
2018-04-06T15:26:57.520Z,23.08
2018-04-06T15:29:23.502Z,23.09
2018-04-06T15:31:49.476Z,23.10
2018-04-06T15:34:15.495Z,23.07
2018-04-06T15:36:41.456Z,23.08
2018-04-06T15:39:07.404Z,23.07
2018-04-06T15:41:33.422Z,23.05
2018-04-06T15:43:59.393Z,23.05
2018-04-06T15:46:25.414Z,23.04
2018-04-06T15:48:51.367Z,23.03
2018-04-06T15:51:17.388Z,23.03
2018-04-06T15:53:43.431Z,23.03
2018-04-06T15:56:09.446Z,23.00
2018-04-06T15:58:35.404Z,23.02
2018-04-06T16:01:01.452Z,23.02
2018-04-06T16:03:27.434Z,23.04
2018-04-06T16:05:53.421Z,23.03
2018-04-06T16:08:19.438Z,23.02
2018-04-06T16:10:45.412Z,23.02
2018-04-06T16:13:11.409Z,23.03
2018-04-06T16:15:37.420Z,23.04
2018-04-06T16:18:03.526Z,23.03
2018-04-06T16:20:29.536Z,23.05
2018-04-06T16:22:55.559Z,23.04
2018-04-06T16:25:21.501Z,23.00
2018-04-06T16:27:47.503Z,23.00
2018-04-06T16:30:13.513Z,23.00
2018-04-06T16:32:39.530Z,22.99
2018-04-06T16:35:05.513Z,23.01
2018-04-06T16:37:31.503Z,23.02
2018-04-06T16:39:57.615Z,23.01
2018-04-06T16:42:23.564Z,23.01
2018-04-06T16:44:49.583Z,23.01
2018-04-06T16:47:15.636Z,23.02
2018-04-06T16:49:44.035Z,23.01
2018-04-06T16:52:10.634Z,23.01
2018-04-06T16:54:36.649Z,23.00
2018-04-06T16:57:02.632Z,23.01
2018-04-06T16:59:28.644Z,23.01
2018-04-06T17:01:54.628Z,23.00
2018-04-06T17:04:20.640Z,22.99
2018-04-06T17:06:46.583Z,22.99
2018-04-06T17:09:12.566Z,22.99
2018-04-06T17:11:38.581Z,23.01
2018-04-06T17:14:04.536Z,23.00
2018-04-06T17:16:30.546Z,22.99
2018-04-06T17:18:56.557Z,22.95
2018-04-06T17:21:22.507Z,22.96
2018-04-06T17:23:48.499Z,22.94
2018-04-06T17:26:14.506Z,22.94
2018-04-06T17:28:40.449Z,22.93
2018-04-06T17:31:06.510Z,22.92
2018-04-06T17:33:32.467Z,22.92
2018-04-06T17:35:58.493Z,22.91
2018-04-06T17:38:24.471Z,22.91
2018-04-06T17:40:50.423Z,22.92
2018-04-06T17:43:16.404Z,22.92
2018-04-06T17:45:42.395Z,22.91
2018-04-06T17:48:08.379Z,22.92
2018-04-06T17:50:34.382Z,22.91
2018-04-06T17:53:00.388Z,22.93
2018-04-06T17:55:26.370Z,22.93
2018-04-06T17:57:52.387Z,22.93
2018-04-06T18:00:18.554Z,22.93
2018-04-06T18:02:45.066Z,22.92
2018-04-06T18:05:11.029Z,22.92
2018-04-06T18:07:37.046Z,22.92
2018-04-06T18:10:02.994Z,22.91
2018-04-06T18:12:29.024Z,22.91
2018-04-06T18:14:55.055Z,22.91
2018-04-06T18:17:21.023Z,22.93
2018-04-06T18:19:47.012Z,22.94
2018-04-06T18:22:15.928Z,22.92
2018-04-06T18:24:42.437Z,22.93
2018-04-06T18:27:08.413Z,22.94
2018-04-06T18:29:34.395Z,22.95
2018-04-06T18:32:00.414Z,22.96
2018-04-06T18:34:26.416Z,22.94
2018-04-06T18:36:52.420Z,22.93
2018-04-06T18:39:18.448Z,22.92
2018-04-06T18:41:44.401Z,22.90
2018-04-06T18:44:10.378Z,22.89
2018-04-06T18:46:36.363Z,22.89
2018-04-06T18:49:02.336Z,22.88
2018-04-06T18:51:28.326Z,22.87
2018-04-06T18:53:54.327Z,22.87
2018-04-06T18:56:20.303Z,22.86
2018-04-06T18:58:46.312Z,22.86
2018-04-06T19:01:12.296Z,22.86
2018-04-06T19:03:38.316Z,22.85
2018-04-06T19:06:07.200Z,22.85
2018-04-06T19:08:34.249Z,22.84
2018-04-06T19:11:00.264Z,22.85
2018-04-06T19:13:26.307Z,22.84
2018-04-06T19:15:52.297Z,22.85
2018-04-06T19:18:18.280Z,22.85
2018-04-06T19:20:44.283Z,22.85
2018-04-06T19:23:10.264Z,22.84
2018-04-06T19:25:36.277Z,22.84
2018-04-06T19:28:02.285Z,22.84
2018-04-06T19:30:28.272Z,22.84
2018-04-06T19:32:54.286Z,22.84
2018-04-06T19:35:20.267Z,22.84
2018-04-06T19:37:46.278Z,22.84
2018-04-06T19:40:12.223Z,22.84
2018-04-06T19:42:38.250Z,22.83
2018-04-06T19:45:04.411Z,22.83
2018-04-06T19:47:30.388Z,22.83
2018-04-06T19:49:56.412Z,22.83
2018-04-06T19:52:22.397Z,22.82
2018-04-06T19:54:48.373Z,22.83
2018-04-06T19:57:14.389Z,22.83
2018-04-06T19:59:40.361Z,22.83
2018-04-06T20:02:06.373Z,22.83
2018-04-06T20:04:32.322Z,22.83
2018-04-06T20:06:58.293Z,22.82
2018-04-06T20:09:24.344Z,22.82
2018-04-06T20:11:50.352Z,22.83
2018-04-06T20:14:16.367Z,22.83
2018-04-06T20:16:42.350Z,22.82
2018-04-06T20:19:08.360Z,22.82
2018-04-06T20:21:34.311Z,22.81
2018-04-06T20:24:00.295Z,22.83
2018-04-06T20:26:26.282Z,22.82
2018-04-06T20:28:52.262Z,22.81
2018-04-06T20:31:18.320Z,22.82
2018-04-06T20:33:44.397Z,22.82
2018-04-06T20:36:10.352Z,22.82
2018-04-06T20:38:36.362Z,22.81
2018-04-06T20:41:02.339Z,22.81
2018-04-06T20:43:28.361Z,22.81
2018-04-06T20:45:54.690Z,22.80
2018-04-06T20:48:20.707Z,22.81
2018-04-06T20:50:46.718Z,22.80
2018-04-06T20:53:12.699Z,22.80
2018-04-06T20:55:38.678Z,22.79
2018-04-06T20:58:04.652Z,22.80
2018-04-06T21:00:30.757Z,22.79
2018-04-06T21:02:56.743Z,22.80
2018-04-06T21:05:22.765Z,22.80
2018-04-06T21:07:48.745Z,22.80
2018-04-06T21:10:14.761Z,22.79
2018-04-06T21:12:40.736Z,22.79
2018-04-06T21:15:06.747Z,22.80
2018-04-06T21:17:32.894Z,22.80
2018-04-06T21:19:58.967Z,22.80
2018-04-06T21:22:24.982Z,22.80
2018-04-06T21:24:50.960Z,22.80
2018-04-06T21:27:16.943Z,22.79
2018-04-06T21:29:42.911Z,22.79
2018-04-06T21:32:08.894Z,22.79
2018-04-06T21:34:34.882Z,22.78
2018-04-06T21:37:00.893Z,22.78
2018-04-06T21:39:26.901Z,22.77
2018-04-06T21:41:52.846Z,22.76
2018-04-06T21:44:18.858Z,22.77
2018-04-06T21:46:44.864Z,22.77
2018-04-06T21:49:11.014Z,22.76
2018-04-06T21:51:36.987Z,22.76
2018-04-06T21:54:02.968Z,22.77
2018-04-06T21:56:29.024Z,22.76
2018-04-06T21:58:55.005Z,22.75
2018-04-06T22:01:21.054Z,22.75
2018-04-06T22:03:47.036Z,22.75
2018-04-06T22:06:13.065Z,22.77
2018-04-06T22:08:39.048Z,22.76
2018-04-06T22:11:05.066Z,22.76
2018-04-06T22:13:31.014Z,22.74
2018-04-06T22:15:56.992Z,22.71
2018-04-06T22:18:23.001Z,22.68
2018-04-06T22:20:48.948Z,22.66
2018-04-06T22:23:14.932Z,22.64
2018-04-06T22:25:40.910Z,22.62
2018-04-06T22:28:06.888Z,22.63
2018-04-06T22:30:32.898Z,22.63
2018-04-06T22:32:58.877Z,22.60
2018-04-06T22:35:24.853Z,22.62
2018-04-06T22:37:50.832Z,22.62
2018-04-06T22:40:16.858Z,22.63
2018-04-06T22:42:42.828Z,22.62
2018-04-06T22:45:08.777Z,22.60
2018-04-06T22:47:34.760Z,22.58
2018-04-06T22:50:00.783Z,22.59
2018-04-06T22:52:26.756Z,22.57
2018-04-06T22:54:52.801Z,22.56
2018-04-06T22:57:18.820Z,22.56
2018-04-06T22:59:44.796Z,22.56
2018-04-06T23:02:10.756Z,22.56
2018-04-06T23:04:36.739Z,22.58
2018-04-06T23:07:02.727Z,22.60
2018-04-06T23:09:28.712Z,22.57
2018-04-06T23:11:54.801Z,22.56
2018-04-06T23:14:20.773Z,22.56
2018-04-06T23:16:46.759Z,22.57
2018-04-06T23:19:12.705Z,22.56
2018-04-06T23:21:38.724Z,22.57
2018-04-06T23:24:04.664Z,22.58
2018-04-06T23:26:30.678Z,22.58
2018-04-06T23:28:56.684Z,22.57
2018-04-06T23:31:22.724Z,22.57
2018-04-06T23:33:48.732Z,22.57
2018-04-06T23:36:14.714Z,22.57
2018-04-06T23:38:40.688Z,22.55
2018-04-06T23:41:06.665Z,22.54
2018-04-06T23:43:32.684Z,22.51
2018-04-06T23:45:58.667Z,22.52
2018-04-06T23:48:24.673Z,22.50
2018-04-06T23:50:50.657Z,22.50
2018-04-06T23:53:16.633Z,22.54
2018-04-06T23:55:42.610Z,22.54
2018-04-06T23:58:08.588Z,22.55
